createdAt,value
2019-02-19T00:00:47.815Z,16.3
2019-02-19T00:01:50.268Z,16.3
2019-02-19T00:02:52.695Z,16.1
2019-02-19T00:03:55.133Z,16.2
2019-02-19T00:04:57.558Z,16.2
2019-02-19T00:05:59.980Z,16.1
2019-02-19T00:07:02.414Z,16.2
2019-02-19T00:08:04.847Z,16.2
2019-02-19T00:09:07.009Z,16.2
2019-02-19T00:10:09.435Z,16.2
2019-02-19T00:11:11.329Z,16.2
2019-02-19T00:12:13.742Z,16.2
2019-02-19T00:13:16.176Z,16.2
2019-02-19T00:14:18.607Z,16.2
2019-02-19T00:15:21.021Z,16.2
2019-02-19T00:16:23.354Z,16.2
2019-02-19T00:17:25.774Z,16.2
2019-02-19T00:18:27.966Z,16.2
2019-02-19T00:19:30.392Z,16.2
2019-02-19T00:20:32.807Z,16.2
2019-02-19T00:21:35.240Z,16.2
2019-02-19T00:22:37.409Z,16.2
2019-02-19T00:23:39.836Z,16.1
2019-02-19T00:24:42.305Z,16.2
2019-02-19T00:25:44.452Z,16.2
2019-02-19T00:26:46.881Z,16.2
2019-02-19T00:27:49.044Z,16.2
2019-02-19T00:28:51.239Z,16.2
2019-02-19T00:29:53.663Z,16.2
2019-02-19T00:30:55.823Z,16.2
2019-02-19T00:31:58.267Z,16.2
2019-02-19T00:33:00.429Z,16.3
2019-02-19T00:34:02.851Z,16.2
2019-02-19T00:35:05.286Z,16.3
2019-02-19T00:36:07.165Z,16.3
2019-02-19T00:37:09.325Z,16.2
2019-02-19T00:38:11.768Z,16.3
2019-02-19T00:39:14.209Z,16.3
2019-02-19T00:40:16.368Z,16.2
2019-02-19T00:41:18.805Z,16.3
2019-02-19T00:42:20.711Z,16.3
2019-02-19T00:43:23.135Z,16.3
2019-02-19T00:44:25.592Z,16.3
2019-02-19T00:45:27.465Z,16.3
2019-02-19T00:46:29.889Z,16.4
2019-02-19T00:47:32.073Z,16.3
2019-02-19T00:48:34.208Z,16.3
2019-02-19T00:49:36.362Z,16.3
2019-02-19T00:50:38.786Z,16.4
2019-02-19T00:51:40.945Z,16.2
2019-02-19T00:52:43.105Z,16.3
2019-02-19T00:53:45.555Z,16.3
2019-02-19T00:54:47.997Z,16.3
2019-02-19T00:55:50.411Z,16.3
2019-02-19T00:56:52.854Z,16.3
2019-02-19T00:57:56.740Z,16.3
2019-02-19T00:58:59.174Z,16.3
2019-02-19T01:00:01.320Z,16.3
2019-02-19T01:01:03.735Z,16.4
2019-02-19T01:02:05.867Z,16.4
2019-02-19T01:03:08.039Z,16.4
2019-02-19T01:04:10.479Z,16.5
2019-02-19T01:05:13.478Z,16.4
2019-02-19T01:06:15.353Z,16.5
2019-02-19T01:07:17.774Z,16.4
2019-02-19T01:08:19.942Z,16.4
2019-02-19T01:09:22.077Z,16.4
2019-02-19T01:10:24.244Z,16.5
2019-02-19T01:11:26.137Z,16.4
2019-02-19T01:12:28.278Z,16.4
2019-02-19T01:13:30.707Z,16.4
2019-02-19T01:14:32.877Z,16.4
2019-02-19T01:15:35.327Z,16.5
2019-02-19T01:16:37.751Z,16.6
2019-02-19T01:17:40.179Z,16.4
2019-02-19T01:18:42.384Z,16.6
2019-02-19T01:19:44.536Z,16.5
2019-02-19T01:20:46.965Z,16.4
2019-02-19T01:21:49.143Z,16.7
2019-02-19T01:22:51.587Z,16.6
2019-02-19T01:23:52.917Z,16.6
2019-02-19T01:24:55.329Z,16.5
2019-02-19T01:25:57.756Z,16.6
2019-02-19T01:27:00.174Z,16.6
2019-02-19T01:28:02.593Z,16.5
2019-02-19T01:29:05.028Z,16.6
2019-02-19T01:30:07.208Z,16.6
2019-02-19T01:31:09.364Z,16.8
2019-02-19T01:32:11.519Z,16.6
2019-02-19T01:33:13.935Z,16.6
2019-02-19T01:34:15.854Z,16.7
2019-02-19T01:35:18.032Z,16.6
2019-02-19T01:36:20.482Z,16.6
2019-02-19T01:37:23.218Z,16.6
2019-02-19T01:38:25.098Z,16.7
2019-02-19T01:39:26.960Z,16.6
2019-02-19T01:40:29.114Z,16.6
2019-02-19T01:41:32.153Z,16.6
2019-02-19T01:42:34.026Z,16.6
2019-02-19T01:43:36.187Z,16.7
2019-02-19T01:44:38.348Z,16.6
2019-02-19T01:45:40.772Z,16.6
2019-02-19T01:46:42.923Z,16.7
2019-02-19T01:47:44.820Z,16.7
2019-02-19T01:48:47.256Z,16.7
2019-02-19T01:49:49.130Z,16.7
2019-02-19T01:50:51.272Z,16.7
2019-02-19T01:51:53.701Z,16.6
2019-02-19T01:52:55.859Z,16.6
2019-02-19T01:53:58.289Z,16.7
2019-02-19T01:55:00.454Z,16.6
2019-02-19T01:56:02.884Z,16.6
2019-02-19T01:57:04.779Z,16.7
2019-02-19T01:58:06.933Z,16.6
2019-02-19T01:59:08.829Z,16.7
2019-02-19T02:00:11.002Z,16.6
2019-02-19T02:01:13.160Z,16.7
2019-02-19T02:02:15.575Z,16.6
2019-02-19T02:03:18.002Z,16.7
2019-02-19T02:04:19.870Z,16.7
2019-02-19T02:05:22.293Z,16.7
2019-02-19T02:06:24.722Z,16.7
2019-02-19T02:07:26.892Z,16.7
2019-02-19T02:08:29.322Z,16.7
2019-02-19T02:09:31.483Z,16.6
2019-02-19T02:10:33.382Z,16.8
2019-02-19T02:11:35.553Z,16.7
2019-02-19T02:12:37.971Z,16.7
2019-02-19T02:13:40.132Z,16.7
2019-02-19T02:14:42.013Z,16.7
2019-02-19T02:15:44.188Z,16.7
2019-02-19T02:16:46.622Z,16.7
2019-02-19T02:17:48.769Z,16.7
2019-02-19T02:18:51.192Z,16.8
2019-02-19T02:19:53.617Z,16.7
2019-02-19T02:20:56.046Z,16.7
2019-02-19T02:21:58.204Z,16.8
2019-02-19T02:23:00.344Z,16.7
2019-02-19T02:24:02.502Z,16.7
2019-02-19T02:25:04.927Z,16.7
2019-02-19T02:26:07.362Z,16.7
2019-02-19T02:27:09.797Z,16.7
2019-02-19T02:28:11.671Z,16.8
2019-02-19T02:29:13.819Z,16.7
2019-02-19T02:30:15.971Z,16.8
2019-02-19T02:31:17.830Z,16.7
2019-02-19T02:32:19.721Z,16.8
2019-02-19T02:33:21.853Z,16.8
2019-02-19T02:34:24.004Z,16.8
2019-02-19T02:35:26.445Z,16.8
2019-02-19T02:36:28.870Z,16.8
2019-02-19T02:37:30.733Z,16.8
2019-02-19T02:38:32.895Z,16.7
2019-02-19T02:39:35.325Z,16.7
2019-02-19T02:40:37.503Z,16.8
2019-02-19T02:41:40.112Z,16.7
2019-02-19T02:42:42.551Z,16.7
2019-02-19T02:43:44.697Z,16.8
2019-02-19T02:44:47.148Z,16.8
2019-02-19T02:46:54.286Z,16.8
2019-02-19T02:47:56.705Z,16.8
2019-02-19T02:48:58.317Z,16.8
2019-02-19T02:50:00.455Z,16.8
2019-02-19T02:51:02.652Z,16.7
2019-02-19T02:52:05.106Z,16.8
2019-02-19T02:53:06.994Z,16.8
2019-02-19T02:54:09.423Z,16.7
2019-02-19T02:55:11.563Z,16.8
2019-02-19T02:56:13.724Z,16.7
2019-02-19T02:57:15.938Z,16.8
2019-02-19T02:58:17.527Z,16.8
2019-02-19T02:59:19.396Z,16.7
2019-02-19T03:00:21.823Z,16.8
2019-02-19T03:01:23.968Z,16.7
2019-02-19T03:02:26.406Z,16.8
2019-02-19T03:03:28.572Z,16.8
2019-02-19T03:04:30.709Z,16.8
2019-02-19T03:05:32.870Z,16.9
2019-02-19T03:06:35.020Z,16.7
2019-02-19T03:07:36.894Z,16.8
2019-02-19T03:08:39.045Z,16.8
2019-02-19T03:09:41.481Z,16.7
2019-02-19T03:10:43.631Z,16.8
2019-02-19T03:11:45.489Z,16.7
2019-02-19T03:12:47.913Z,16.7
2019-02-19T03:13:50.332Z,16.7
2019-02-19T03:14:52.774Z,16.7
2019-02-19T03:17:00.176Z,16.7
2019-02-19T03:18:02.602Z,16.7
2019-02-19T03:19:05.045Z,16.7
2019-02-19T03:20:07.466Z,16.8
2019-02-19T03:21:09.898Z,16.7
2019-02-19T03:22:12.057Z,16.7
2019-02-19T03:23:14.203Z,16.7
2019-02-19T03:24:16.364Z,16.8
2019-02-19T03:25:18.798Z,16.8
2019-02-19T03:26:21.214Z,16.7
2019-02-19T03:27:23.644Z,16.8
2019-02-19T03:28:25.807Z,16.7
2019-02-19T03:29:28.276Z,16.7
2019-02-19T03:30:30.429Z,16.7
2019-02-19T03:31:32.604Z,16.7
2019-02-19T03:32:34.777Z,16.8
2019-02-19T03:33:37.208Z,16.7
2019-02-19T03:34:39.664Z,16.8
2019-02-19T03:35:41.246Z,16.7
2019-02-19T03:36:43.683Z,16.8
2019-02-19T03:37:45.837Z,16.7
2019-02-19T03:38:48.549Z,16.7
2019-02-19T03:39:50.698Z,16.8
2019-02-19T03:40:53.132Z,16.7
2019-02-19T03:41:55.305Z,16.8
2019-02-19T03:42:57.473Z,16.7
2019-02-19T03:43:59.897Z,16.7
2019-02-19T03:45:02.050Z,16.8
2019-02-19T03:47:09.465Z,16.7
2019-02-19T03:48:11.896Z,16.7
2019-02-19T03:49:13.741Z,16.8
2019-02-19T03:50:15.892Z,16.7
2019-02-19T03:51:18.314Z,16.7
2019-02-19T03:52:20.745Z,16.8
2019-02-19T03:53:23.181Z,16.7
2019-02-19T03:54:25.342Z,16.7
2019-02-19T03:55:27.774Z,16.7
2019-02-19T03:56:30.199Z,16.8
2019-02-19T03:57:33.108Z,16.8
2019-02-19T03:58:35.713Z,16.8
2019-02-19T03:59:37.869Z,16.7
2019-02-19T04:00:40.357Z,16.8
2019-02-19T04:01:42.835Z,16.8
2019-02-19T04:02:45.316Z,16.8
2019-02-19T04:03:47.511Z,16.8
2019-02-19T04:04:49.997Z,16.7
2019-02-19T04:05:52.444Z,16.7
2019-02-19T04:06:54.615Z,16.8
2019-02-19T04:07:56.772Z,16.7
2019-02-19T04:08:59.218Z,16.7
2019-02-19T04:10:01.672Z,16.7
2019-02-19T04:11:04.115Z,16.7
2019-02-19T04:12:06.271Z,16.7
2019-02-19T04:13:08.690Z,16.6
2019-02-19T04:14:10.857Z,16.6
2019-02-19T04:15:13.276Z,16.7
2019-02-19T04:17:20.425Z,16.7
2019-02-19T04:18:22.284Z,16.6
2019-02-19T04:19:24.719Z,16.5
2019-02-19T04:20:26.858Z,16.6
2019-02-19T04:21:29.284Z,16.6
2019-02-19T04:22:31.159Z,16.5
2019-02-19T04:23:33.312Z,16.6
2019-02-19T04:24:35.197Z,16.5
2019-02-19T04:25:37.625Z,16.6
2019-02-19T04:26:39.784Z,16.6
2019-02-19T04:27:42.215Z,16.6
2019-02-19T04:28:44.636Z,16.5
2019-02-19T04:29:47.072Z,16.6
2019-02-19T04:30:48.954Z,16.6
2019-02-19T04:31:51.094Z,16.6
2019-02-19T04:32:53.531Z,16.6
2019-02-19T04:33:55.675Z,16.5
2019-02-19T04:34:58.089Z,16.5
2019-02-19T04:36:00.512Z,16.5
2019-02-19T04:37:02.964Z,16.6
2019-02-19T04:38:05.486Z,16.6
2019-02-19T04:39:07.666Z,16.5
2019-02-19T04:40:09.821Z,16.6
2019-02-19T04:41:11.693Z,16.5
2019-02-19T04:42:14.114Z,16.4
2019-02-19T04:43:16.260Z,16.4
2019-02-19T04:44:18.694Z,16.5
2019-02-19T04:45:21.126Z,16.5
2019-02-19T04:47:28.533Z,16.5
2019-02-19T04:48:30.425Z,16.5
2019-02-19T04:49:32.593Z,16.4
2019-02-19T04:50:34.769Z,16.5
2019-02-19T04:51:36.908Z,16.4
2019-02-19T04:52:39.343Z,16.5
2019-02-19T04:53:41.497Z,16.5
2019-02-19T04:54:43.924Z,16.4
2019-02-19T04:55:46.357Z,16.4
2019-02-19T04:56:48.222Z,16.4
2019-02-19T04:57:50.662Z,16.3
2019-02-19T04:58:52.803Z,16.4
2019-02-19T04:59:54.682Z,16.5
2019-02-19T05:00:57.146Z,16.4
2019-02-19T05:01:59.026Z,16.5
2019-02-19T05:03:01.227Z,16.4
2019-02-19T05:04:03.665Z,16.4
2019-02-19T05:05:06.090Z,16.4
2019-02-19T05:06:08.533Z,16.4
2019-02-19T05:07:10.964Z,16.3
2019-02-19T05:08:13.396Z,16.3
2019-02-19T05:09:15.546Z,16.3
2019-02-19T05:10:17.970Z,16.4
2019-02-19T05:11:19.843Z,16.4
2019-02-19T05:12:22.258Z,16.4
2019-02-19T05:13:24.685Z,16.3
2019-02-19T05:14:27.105Z,16.3
2019-02-19T05:15:29.011Z,16.4
2019-02-19T05:17:36.403Z,16.3
2019-02-19T05:18:38.552Z,16.4
2019-02-19T05:19:40.977Z,16.3
2019-02-19T05:20:43.391Z,16.3
2019-02-19T05:21:45.564Z,16.3
2019-02-19T05:22:47.744Z,16.4
2019-02-19T05:23:49.898Z,16.4
2019-02-19T05:24:52.323Z,16.4
2019-02-19T05:25:54.762Z,16.4
2019-02-19T05:26:57.194Z,16.4
2019-02-19T05:27:59.369Z,16.3
2019-02-19T05:29:01.814Z,16.3
2019-02-19T05:30:03.690Z,16.3
2019-02-19T05:31:06.135Z,16.2
2019-02-19T05:32:08.555Z,16.4
2019-02-19T05:33:10.437Z,16.3
2019-02-19T05:34:12.589Z,16.3
2019-02-19T05:35:15.033Z,16.3
2019-02-19T05:36:17.463Z,16.3
2019-02-19T05:37:19.346Z,16.3
2019-02-19T05:38:21.774Z,16.3
2019-02-19T05:39:24.202Z,16.3
2019-02-19T05:40:26.334Z,16.3
2019-02-19T05:41:28.791Z,16.4
2019-02-19T05:42:30.935Z,16.4
2019-02-19T05:43:33.353Z,16.3
2019-02-19T05:44:35.782Z,16.3
2019-02-19T05:45:38.216Z,16.3
2019-02-19T05:46:49.240Z,16.3
2019-02-19T05:47:45.843Z,16.3
2019-02-19T05:48:48.274Z,16.3
2019-02-19T05:49:50.437Z,16.3
2019-02-19T05:50:52.861Z,16.2
2019-02-19T05:51:55.290Z,16.3
2019-02-19T05:52:57.173Z,16.3
2019-02-19T05:53:59.078Z,16.3
2019-02-19T05:55:01.291Z,16.3
2019-02-19T05:56:03.437Z,16.4
2019-02-19T05:57:05.865Z,16.2
2019-02-19T05:58:08.024Z,16.3
2019-02-19T05:59:09.898Z,16.3
2019-02-19T06:00:12.324Z,16.3
2019-02-19T06:01:14.471Z,16.3
2019-02-19T06:02:16.943Z,16.3
2019-02-19T06:03:19.375Z,16.3
2019-02-19T06:04:21.254Z,16.3
2019-02-19T06:05:23.117Z,16.3
2019-02-19T06:06:25.264Z,16.3
2019-02-19T06:07:27.698Z,16.3
2019-02-19T06:08:29.854Z,16.3
2019-02-19T06:09:32.027Z,16.3
2019-02-19T06:10:34.217Z,16.3
2019-02-19T06:11:36.364Z,16.3
2019-02-19T06:12:38.549Z,16.3
2019-02-19T06:13:40.709Z,16.3
2019-02-19T06:14:43.132Z,16.3
2019-02-19T06:15:45.564Z,16.3
2019-02-19T06:16:47.720Z,16.3
2019-02-19T06:17:49.880Z,16.2
2019-02-19T06:18:52.303Z,16.2
2019-02-19T06:19:54.779Z,16.3
2019-02-19T06:20:56.933Z,16.3
2019-02-19T06:21:59.373Z,16.3
2019-02-19T06:23:01.813Z,16.2
2019-02-19T06:24:04.005Z,16.2
2019-02-19T06:25:06.450Z,16.3
2019-02-19T06:26:08.669Z,16.3
2019-02-19T06:27:11.106Z,16.3
2019-02-19T06:28:13.534Z,16.3
2019-02-19T06:29:15.694Z,16.2
2019-02-19T06:30:17.882Z,16.3
2019-02-19T06:31:20.030Z,16.2
2019-02-19T06:32:22.458Z,16.3
2019-02-19T06:33:24.901Z,16.3
2019-02-19T06:34:27.330Z,16.2
2019-02-19T06:35:28.937Z,16.3
2019-02-19T06:36:31.364Z,16.3
2019-02-19T06:37:33.515Z,16.3
2019-02-19T06:38:35.955Z,16.4
2019-02-19T06:39:38.131Z,16.2
2019-02-19T06:40:40.308Z,16.2
2019-02-19T06:41:42.745Z,16.2
2019-02-19T06:42:44.903Z,16.3
2019-02-19T06:43:47.343Z,16.2
2019-02-19T06:44:49.509Z,16.2
2019-02-19T06:45:51.671Z,16.3
2019-02-19T06:46:54.103Z,16.2
2019-02-19T06:47:56.536Z,16.3
2019-02-19T06:48:58.695Z,16.2
2019-02-19T06:50:00.628Z,16.3
2019-02-19T06:51:03.053Z,16.3
2019-02-19T06:52:05.175Z,16.3
2019-02-19T06:53:07.604Z,16.3
2019-02-19T06:54:09.775Z,16.2
2019-02-19T06:55:11.936Z,16.3
2019-02-19T06:56:14.081Z,16.2
2019-02-19T06:57:16.503Z,16.3
2019-02-19T06:58:18.156Z,16.3
2019-02-19T06:59:20.682Z,16.3
2019-02-19T07:00:22.624Z,16.2
2019-02-19T07:01:24.796Z,16.3
2019-02-19T07:02:27.254Z,16.2
2019-02-19T07:03:29.684Z,16.3
2019-02-19T07:04:31.851Z,16.3
2019-02-19T07:05:33.737Z,16.3
2019-02-19T07:06:35.902Z,16.3
2019-02-19T07:07:38.054Z,16.2
2019-02-19T07:08:40.476Z,16.3
2019-02-19T07:09:42.360Z,16.3
2019-02-19T07:10:44.525Z,16.3
2019-02-19T07:11:46.649Z,16.3
2019-02-19T07:12:48.799Z,16.3
2019-02-19T07:13:50.951Z,16.2
2019-02-19T07:14:53.111Z,16.3
2019-02-19T07:15:55.549Z,16.2
2019-02-19T07:16:57.970Z,16.2
2019-02-19T07:18:00.127Z,16.2
2019-02-19T07:19:02.553Z,16.2
2019-02-19T07:20:04.966Z,16.3
2019-02-19T07:21:06.865Z,16.2
2019-02-19T07:22:09.045Z,16.3
2019-02-19T07:23:11.473Z,16.2
2019-02-19T07:24:13.901Z,16.3
2019-02-19T07:25:16.329Z,16.2
2019-02-19T07:26:18.757Z,16.3
2019-02-19T07:27:21.169Z,16.2
2019-02-19T07:28:23.332Z,16.2
2019-02-19T07:29:25.792Z,16.2
2019-02-19T07:30:27.896Z,16.3
2019-02-19T07:31:30.316Z,16.3
2019-02-19T07:32:32.481Z,16.2
2019-02-19T07:33:34.631Z,16.3
2019-02-19T07:34:36.776Z,16.3
2019-02-19T07:35:39.220Z,16.2
2019-02-19T07:36:41.853Z,16.3
2019-02-19T07:37:44.008Z,16.3
2019-02-19T07:38:45.903Z,16.2
2019-02-19T07:39:48.075Z,16.3
2019-02-19T07:40:50.247Z,16.2
2019-02-19T07:41:52.670Z,16.3
2019-02-19T07:42:54.567Z,16.2
2019-02-19T07:43:56.479Z,16.2
2019-02-19T07:44:58.921Z,16.2
2019-02-19T07:46:01.348Z,16.2
2019-02-19T07:47:03.772Z,16.2
2019-02-19T07:48:06.206Z,16.3
2019-02-19T07:49:08.119Z,16.2
2019-02-19T07:50:10.283Z,16.2
2019-02-19T07:51:12.706Z,16.3
2019-02-19T07:52:14.859Z,16.3
2019-02-19T07:53:16.997Z,16.3
2019-02-19T07:54:18.866Z,16.2
2019-02-19T07:55:21.331Z,16.2
2019-02-19T07:56:23.766Z,16.2
2019-02-19T07:57:25.392Z,16.2
2019-02-19T07:58:27.572Z,16.2
2019-02-19T07:59:29.759Z,16.2
2019-02-19T08:00:32.182Z,16.2
2019-02-19T08:01:34.610Z,16.2
2019-02-19T08:02:37.050Z,16.2
2019-02-19T08:03:39.209Z,16.2
2019-02-19T08:04:41.386Z,16.3
2019-02-19T08:05:43.584Z,16.1
2019-02-19T08:06:46.069Z,16.2
2019-02-19T08:07:48.255Z,16.3
2019-02-19T08:08:50.418Z,16.2
2019-02-19T08:09:52.856Z,16.2
2019-02-19T08:10:55.015Z,16.2
2019-02-19T08:11:57.442Z,16.2
2019-02-19T08:12:59.876Z,16.2
2019-02-19T08:14:02.049Z,16.3
2019-02-19T08:15:04.474Z,16.2
2019-02-19T08:16:06.897Z,16.2
2019-02-19T08:17:09.046Z,16.2
2019-02-19T08:18:11.237Z,16.2
2019-02-19T08:19:13.671Z,16.2
2019-02-19T08:20:16.900Z,16.3
2019-02-19T08:21:19.324Z,16.3
2019-02-19T08:22:21.229Z,16.2
2019-02-19T08:23:23.388Z,16.2
2019-02-19T08:24:25.555Z,16.2
2019-02-19T08:25:27.998Z,16.2
2019-02-19T08:26:30.435Z,16.3
2019-02-19T08:27:32.304Z,16.2
2019-02-19T08:28:34.470Z,16.2
2019-02-19T08:29:36.353Z,16.2
2019-02-19T08:30:38.525Z,16.2
2019-02-19T08:31:40.952Z,16.3
2019-02-19T08:32:43.384Z,16.3
2019-02-19T08:33:45.816Z,16.2
2019-02-19T08:34:48.256Z,16.2
2019-02-19T08:35:50.413Z,16.2
2019-02-19T08:36:52.845Z,16.3
2019-02-19T08:37:54.442Z,16.2
2019-02-19T08:38:56.883Z,16.3
2019-02-19T08:39:59.030Z,16.2
2019-02-19T08:41:01.283Z,16.3
2019-02-19T08:42:03.706Z,16.2
2019-02-19T08:43:06.132Z,16.2
2019-02-19T08:44:09.033Z,16.3
2019-02-19T08:45:11.473Z,16.2
2019-02-19T08:46:13.902Z,16.2
2019-02-19T08:47:16.345Z,16.2
2019-02-19T08:48:18.783Z,16.2
2019-02-19T08:49:21.209Z,16.2
2019-02-19T08:50:23.367Z,16.2
2019-02-19T08:51:25.803Z,16.2
2019-02-19T08:52:27.970Z,16.3
2019-02-19T08:53:30.401Z,16.2
2019-02-19T08:54:32.561Z,16.3
2019-02-19T08:55:35.450Z,16.1
2019-02-19T08:56:37.607Z,16.3
2019-02-19T08:57:40.086Z,16.2
2019-02-19T08:58:42.513Z,16.2
2019-02-19T08:59:44.674Z,16.3
2019-02-19T09:00:47.120Z,16.2
2019-02-19T09:01:49.264Z,16.3
2019-02-19T09:02:51.955Z,16.2
2019-02-19T09:03:54.388Z,16.2
2019-02-19T09:04:56.827Z,16.2
2019-02-19T09:05:59.284Z,16.3
2019-02-19T09:07:01.442Z,16.3
2019-02-19T09:08:03.878Z,16.2
2019-02-19T09:09:06.047Z,16.2
2019-02-19T09:10:08.481Z,16.2
2019-02-19T09:11:10.637Z,16.2
2019-02-19T09:12:13.061Z,16.2
2019-02-19T09:13:15.215Z,16.2
2019-02-19T09:14:17.638Z,16.3
2019-02-19T09:15:20.088Z,16.3
2019-02-19T09:16:22.259Z,16.3
2019-02-19T09:17:24.414Z,16.2
2019-02-19T09:18:26.581Z,16.2
2019-02-19T09:19:29.058Z,16.2
2019-02-19T09:20:30.997Z,16.3
2019-02-19T09:21:33.421Z,16.2
2019-02-19T09:22:35.279Z,16.3
2019-02-19T09:23:37.752Z,16.2
2019-02-19T09:24:40.206Z,16.3
2019-02-19T09:25:42.400Z,16.2
2019-02-19T09:26:44.819Z,16.3
2019-02-19T09:27:46.978Z,16.3
2019-02-19T09:28:49.035Z,16.2
2019-02-19T09:29:51.200Z,16.2
2019-02-19T09:30:53.364Z,16.3
2019-02-19T09:31:55.507Z,16.2
2019-02-19T09:32:57.679Z,16.3
2019-02-19T09:34:00.099Z,16.2
2019-02-19T09:35:01.958Z,16.3
2019-02-19T09:36:04.389Z,16.2
2019-02-19T09:37:06.540Z,16.2
2019-02-19T09:38:08.701Z,16.3
2019-02-19T09:39:11.137Z,16.2
2019-02-19T09:40:13.305Z,16.3
2019-02-19T09:41:15.742Z,16.2
2019-02-19T09:42:18.170Z,16.2
2019-02-19T09:43:20.595Z,16.2
2019-02-19T09:44:23.023Z,16.1
2019-02-19T09:45:25.466Z,16.2
2019-02-19T09:46:27.896Z,16.2
2019-02-19T09:47:30.072Z,16.2
2019-02-19T09:48:32.210Z,16.2
2019-02-19T09:49:34.657Z,16.3
2019-02-19T09:50:36.838Z,16.2
2019-02-19T09:51:39.267Z,16.3
2019-02-19T09:52:41.415Z,16.2
2019-02-19T09:53:43.835Z,16.3
2019-02-19T09:54:46.263Z,16.2
2019-02-19T09:55:48.460Z,16.3
2019-02-19T09:56:50.883Z,16.2
2019-02-19T09:57:53.319Z,16.2
2019-02-19T09:58:55.742Z,16.2
2019-02-19T09:59:57.341Z,16.3
2019-02-19T10:00:59.561Z,16.3
2019-02-19T10:02:02.016Z,16.2
2019-02-19T10:03:04.487Z,16.3
2019-02-19T10:04:06.650Z,16.2
2019-02-19T10:05:09.077Z,16.3
2019-02-19T10:06:11.225Z,16.2
2019-02-19T10:07:13.655Z,16.3
2019-02-19T10:08:15.552Z,16.2
2019-02-19T10:09:17.987Z,16.2
2019-02-19T10:10:20.136Z,16.3
2019-02-19T10:11:22.565Z,16.2
2019-02-19T10:12:24.445Z,16.2
2019-02-19T10:13:26.889Z,16.2
2019-02-19T10:14:29.315Z,16.2
2019-02-19T10:15:31.466Z,16.3
2019-02-19T10:17:38.877Z,16.3
2019-02-19T10:18:41.300Z,16.2
2019-02-19T10:19:43.728Z,16.3
2019-02-19T10:20:46.164Z,16.2
2019-02-19T10:21:48.594Z,16.2
2019-02-19T10:22:50.204Z,16.2
2019-02-19T10:23:52.364Z,16.3
2019-02-19T10:24:54.795Z,16.2
2019-02-19T10:25:57.221Z,16.2
2019-02-19T10:26:59.642Z,16.2
2019-02-19T10:28:02.074Z,16.2
2019-02-19T10:29:04.506Z,16.2
2019-02-19T10:30:06.925Z,16.2
2019-02-19T10:31:09.370Z,16.2
2019-02-19T10:32:11.790Z,16.3
2019-02-19T10:33:13.946Z,16.2
2019-02-19T10:34:16.382Z,16.3
2019-02-19T10:35:18.810Z,16.3
2019-02-19T10:36:20.990Z,16.3
2019-02-19T10:37:23.434Z,16.2
2019-02-19T10:38:25.868Z,16.3
2019-02-19T10:39:28.044Z,16.2
2019-02-19T10:40:30.487Z,16.3
2019-02-19T10:41:32.644Z,16.2
2019-02-19T10:42:34.792Z,16.2
2019-02-19T10:43:37.225Z,16.2
2019-02-19T10:44:39.386Z,16.3
2019-02-19T10:45:41.816Z,16.2
2019-02-19T10:46:44.231Z,16.2
2019-02-19T10:47:46.393Z,16.2
2019-02-19T10:48:48.531Z,16.3
2019-02-19T10:49:50.965Z,16.2
2019-02-19T10:50:53.406Z,16.3
2019-02-19T10:51:55.565Z,16.3
2019-02-19T10:52:57.733Z,16.3
2019-02-19T10:53:59.884Z,16.2
2019-02-19T10:55:02.336Z,16.3
2019-02-19T10:56:04.785Z,16.2
2019-02-19T10:57:07.215Z,16.2
2019-02-19T10:58:09.367Z,16.3
2019-02-19T10:59:13.553Z,16.2
2019-02-19T11:00:15.971Z,16.3
2019-02-19T11:01:18.126Z,16.3
2019-02-19T11:02:20.274Z,16.3
2019-02-19T11:03:22.738Z,16.3
2019-02-19T11:04:25.175Z,16.3
2019-02-19T11:05:27.601Z,16.3
2019-02-19T11:06:30.046Z,16.3
2019-02-19T11:07:32.509Z,16.3
2019-02-19T11:08:34.645Z,16.2
2019-02-19T11:09:36.814Z,16.2
2019-02-19T11:10:39.245Z,16.3
2019-02-19T11:11:41.709Z,16.3
2019-02-19T11:12:43.568Z,16.3
2019-02-19T11:13:45.212Z,16.2
2019-02-19T11:14:47.382Z,16.3
2019-02-19T11:15:49.813Z,16.2
2019-02-19T11:16:52.238Z,16.3
2019-02-19T11:17:54.372Z,16.3
2019-02-19T11:18:56.804Z,16.3
2019-02-19T11:19:58.960Z,16.3
2019-02-19T11:21:01.329Z,16.2
2019-02-19T11:22:03.792Z,16.3
2019-02-19T11:23:06.250Z,16.3
2019-02-19T11:24:08.699Z,16.4
2019-02-19T11:25:11.140Z,16.2
2019-02-19T11:26:12.998Z,16.2
2019-02-19T11:27:17.290Z,16.3
2019-02-19T11:28:19.731Z,16.2
2019-02-19T11:29:21.906Z,16.3
2019-02-19T11:30:24.344Z,16.3
2019-02-19T11:31:26.505Z,16.2
2019-02-19T11:32:28.945Z,16.3
2019-02-19T11:33:31.374Z,16.3
2019-02-19T11:34:33.805Z,16.3
2019-02-19T11:35:35.971Z,16.2
2019-02-19T11:36:38.415Z,16.3
2019-02-19T11:37:40.855Z,16.2
2019-02-19T11:38:43.294Z,16.2
2019-02-19T11:39:45.480Z,16.3
2019-02-19T11:40:47.625Z,16.3
2019-02-19T11:41:49.808Z,16.3
2019-02-19T11:42:52.232Z,16.3
2019-02-19T11:43:54.670Z,16.3
2019-02-19T11:44:56.812Z,16.3
2019-02-19T11:45:59.242Z,16.3
2019-02-19T11:47:01.396Z,16.3
2019-02-19T11:48:03.607Z,16.3
2019-02-19T11:49:06.035Z,16.2
2019-02-19T11:50:08.475Z,16.3
2019-02-19T11:51:10.372Z,16.3
2019-02-19T11:52:12.801Z,16.2
2019-02-19T11:53:15.233Z,16.3
2019-02-19T11:54:17.655Z,16.2
2019-02-19T11:55:20.090Z,16.2
2019-02-19T11:56:22.530Z,16.2
2019-02-19T11:57:24.684Z,16.2
2019-02-19T11:58:27.102Z,16.4
2019-02-19T11:59:29.285Z,16.3
2019-02-19T12:00:31.719Z,16.2
2019-02-19T12:01:34.164Z,16.2
2019-02-19T12:02:36.075Z,16.3
2019-02-19T12:03:38.502Z,16.2
2019-02-19T12:04:40.937Z,16.3
2019-02-19T12:05:43.378Z,16.2
2019-02-19T12:06:45.822Z,16.2
2019-02-19T12:07:47.986Z,16.2
2019-02-19T12:08:50.415Z,16.3
2019-02-19T12:09:52.857Z,16.2
2019-02-19T12:10:55.023Z,16.3
2019-02-19T12:11:56.897Z,16.3
2019-02-19T12:12:59.057Z,16.3
2019-02-19T12:14:01.240Z,16.2
2019-02-19T12:15:03.674Z,16.3
2019-02-19T12:16:05.842Z,16.3
2019-02-19T12:17:07.714Z,16.3
2019-02-19T12:18:10.140Z,16.2
2019-02-19T12:19:12.564Z,16.2
2019-02-19T12:20:15.002Z,16.2
2019-02-19T12:21:17.448Z,16.3
2019-02-19T12:22:19.881Z,16.3
2019-02-19T12:23:22.303Z,16.3
2019-02-19T12:24:24.770Z,16.2
2019-02-19T12:25:27.212Z,16.3
2019-02-19T12:26:29.371Z,16.3
2019-02-19T12:27:30.982Z,16.3
2019-02-19T12:28:33.156Z,16.3
2019-02-19T12:29:35.581Z,16.2
2019-02-19T12:30:38.099Z,16.2
2019-02-19T12:31:40.518Z,16.2
2019-02-19T12:32:42.942Z,16.2
2019-02-19T12:33:45.102Z,16.3
2019-02-19T12:34:47.524Z,16.3
2019-02-19T12:35:49.688Z,16.2
2019-02-19T12:36:51.862Z,16.2
2019-02-19T12:37:54.009Z,16.2
2019-02-19T12:38:56.435Z,16.3
2019-02-19T12:39:58.876Z,16.2
2019-02-19T12:41:01.338Z,16.3
2019-02-19T12:42:03.489Z,16.3
2019-02-19T12:43:05.376Z,16.3
2019-02-19T12:44:07.802Z,16.3
2019-02-19T12:45:09.972Z,16.3
2019-02-19T12:46:12.404Z,16.3
2019-02-19T12:47:14.891Z,16.2
2019-02-19T12:48:17.067Z,16.3
2019-02-19T12:49:19.503Z,16.3
2019-02-19T12:50:21.693Z,16.3
2019-02-19T12:52:28.865Z,16.3
2019-02-19T12:53:31.347Z,16.3
2019-02-19T12:54:33.790Z,16.3
2019-02-19T12:55:36.234Z,16.3
2019-02-19T12:56:38.680Z,16.3
2019-02-19T12:57:41.159Z,16.3
2019-02-19T12:58:43.324Z,16.3
2019-02-19T12:59:45.491Z,16.3
2019-02-19T13:00:47.633Z,16.3
2019-02-19T13:01:50.078Z,16.3
2019-02-19T13:02:51.944Z,16.2
2019-02-19T13:03:54.384Z,16.3
2019-02-19T13:04:56.528Z,16.2
2019-02-19T13:05:58.702Z,16.3
2019-02-19T13:07:00.875Z,16.3
2019-02-19T13:08:03.057Z,16.2
2019-02-19T13:09:05.499Z,16.3
2019-02-19T13:10:07.948Z,16.3
2019-02-19T13:11:09.802Z,16.2
2019-02-19T13:12:11.965Z,16.2
2019-02-19T13:13:14.401Z,16.2
2019-02-19T13:14:16.294Z,16.3
2019-02-19T13:15:18.724Z,16.2
2019-02-19T13:16:20.884Z,16.3
2019-02-19T13:17:23.329Z,16.3
2019-02-19T13:18:25.486Z,16.3
2019-02-19T13:19:27.644Z,16.3
2019-02-19T13:20:30.095Z,16.2
2019-02-19T13:21:31.998Z,16.3
2019-02-19T13:22:34.438Z,16.2
2019-02-19T13:23:36.870Z,16.2
2019-02-19T13:24:39.299Z,16.3
2019-02-19T13:25:41.454Z,16.2
2019-02-19T13:26:43.895Z,16.3
2019-02-19T13:27:46.055Z,16.2
2019-02-19T13:28:48.490Z,16.4
2019-02-19T13:29:50.926Z,16.3
2019-02-19T13:30:53.075Z,16.2
2019-02-19T13:31:55.232Z,16.2
2019-02-19T13:32:57.153Z,16.3
2019-02-19T13:33:59.585Z,16.3
2019-02-19T13:35:02.132Z,16.2
2019-02-19T13:36:04.261Z,16.3
2019-02-19T13:37:06.725Z,16.3
2019-02-19T13:38:08.968Z,16.3
2019-02-19T13:39:11.124Z,16.3
2019-02-19T13:40:13.298Z,16.3
2019-02-19T13:41:15.925Z,16.3
2019-02-19T13:42:18.446Z,16.3
2019-02-19T13:43:20.945Z,16.3
2019-02-19T13:44:23.386Z,16.3
2019-02-19T13:45:25.839Z,16.2
2019-02-19T13:46:27.438Z,16.2
2019-02-19T13:47:29.319Z,16.3
2019-02-19T13:48:31.756Z,16.3
2019-02-19T13:49:34.185Z,16.3
2019-02-19T13:50:36.630Z,16.2
2019-02-19T13:51:38.775Z,16.3
2019-02-19T13:52:41.222Z,16.2
2019-02-19T13:53:43.644Z,16.3
2019-02-19T13:54:45.560Z,16.2
2019-02-19T13:55:47.983Z,16.3
2019-02-19T13:56:50.417Z,16.2
2019-02-19T13:57:51.993Z,16.3